sensor_id;sensor_type;location;lat;lon;timestamp;P1;durP1;ratioP1;P2;durP2;ratioP2
85767;SDS011;76705;49.006;12.078;2024-03-08T00:00:36;5.05;;;3.65;;
85767;SDS011;76705;49.006;12.078;2024-03-08T00:03:15;4.97;;;3.70;;
85767;SDS011;76705;49.006;12.078;2024-03-08T00:05:53;7.60;;;4.28;;
85767;SDS011;76705;49.006;12.078;2024-03-08T00:08:32;5.50;;;4.03;;
85767;SDS011;76705;49.006;12.078;2024-03-08T00:11:10;5.50;;;3.72;;
85767;SDS011;76705;49.006;12.078;2024-03-08T00:16:28;5.97;;;3.75;;
85767;SDS011;76705;49.006;12.078;2024-03-08T00:19:06;5.60;;;4.03;;
85767;SDS011;76705;49.006;12.078;2024-03-08T00:21:44;6.85;;;4.40;;
85767;SDS011;76705;49.006;12.078;2024-03-08T00:24:22;6.50;;;3.90;;
85767;SDS011;76705;49.006;12.078;2024-03-08T00:27:02;5.25;;;3.55;;
85767;SDS011;76705;49.006;12.078;2024-03-08T00:29:44;4.55;;;3.28;;
85767;SDS011;76705;49.006;12.078;2024-03-08T00:32:22;5.93;;;3.80;;
85767;SDS011;76705;49.006;12.078;2024-03-08T00:35:05;6.60;;;3.75;;
85767;SDS011;76705;49.006;12.078;2024-03-08T00:37:45;5.63;;;3.88;;
85767;SDS011;76705;49.006;12.078;2024-03-08T00:40:24;5.93;;;3.67;;
85767;SDS011;76705;49.006;12.078;2024-03-08T00:43:02;5.35;;;3.47;;
85767;SDS011;76705;49.006;12.078;2024-03-08T00:45:43;4.88;;;3.33;;
85767;SDS011;76705;49.006;12.078;2024-03-08T00:48:21;5.30;;;3.65;;
85767;SDS011;76705;49.006;12.078;2024-03-08T00:50:59;5.60;;;3.63;;
85767;SDS011;76705;49.006;12.078;2024-03-08T00:53:37;5.03;;;3.58;;
85767;SDS011;76705;49.006;12.078;2024-03-08T00:56:16;5.93;;;3.90;;
85767;SDS011;76705;49.006;12.078;2024-03-08T00:58:54;5.68;;;3.47;;
85767;SDS011;76705;49.006;12.078;2024-03-08T01:01:33;5.38;;;3.67;;
85767;SDS011;76705;49.006;12.078;2024-03-08T01:04:11;6.70;;;4.18;;
85767;SDS011;76705;49.006;12.078;2024-03-08T01:06:49;6.53;;;3.95;;
85767;SDS011;76705;49.006;12.078;2024-03-08T01:09:26;5.45;;;3.78;;
85767;SDS011;76705;49.006;12.078;2024-03-08T01:12:04;6.38;;;4.40;;
85767;SDS011;76705;49.006;12.078;2024-03-08T01:14:45;5.47;;;3.63;;
85767;SDS011;76705;49.006;12.078;2024-03-08T01:20:02;6.25;;;4.13;;
85767;SDS011;76705;49.006;12.078;2024-03-08T01:22:41;5.32;;;3.75;;
85767;SDS011;76705;49.006;12.078;2024-03-08T01:25:19;5.82;;;4.40;;
85767;SDS011;76705;49.006;12.078;2024-03-08T01:27:57;4.90;;;3.35;;
85767;SDS011;76705;49.006;12.078;2024-03-08T01:30:35;6.40;;;3.80;;
85767;SDS011;76705;49.006;12.078;2024-03-08T01:33:16;5.20;;;3.55;;
85767;SDS011;76705;49.006;12.078;2024-03-08T01:35:54;5.18;;;3.70;;
85767;SDS011;76705;49.006;12.078;2024-03-08T01:41:11;6.05;;;3.63;;
85767;SDS011;76705;49.006;12.078;2024-03-08T01:43:50;6.90;;;3.80;;
85767;SDS011;76705;49.006;12.078;2024-03-08T01:46:30;5.90;;;3.78;;
85767;SDS011;76705;49.006;12.078;2024-03-08T01:49:10;5.15;;;3.45;;
85767;SDS011;76705;49.006;12.078;2024-03-08T01:51:50;5.78;;;3.90;;
85767;SDS011;76705;49.006;12.078;2024-03-08T01:54:28;5.80;;;3.85;;
85767;SDS011;76705;49.006;12.078;2024-03-08T01:57:08;8.02;;;3.85;;
85767;SDS011;76705;49.006;12.078;2024-03-08T01:59:46;5.50;;;3.60;;
85767;SDS011;76705;49.006;12.078;2024-03-08T02:02:25;5.65;;;4.40;;
85767;SDS011;76705;49.006;12.078;2024-03-08T02:05:06;5.95;;;4.10;;
85767;SDS011;76705;49.006;12.078;2024-03-08T02:07:44;6.68;;;4.13;;
85767;SDS011;76705;49.006;12.078;2024-03-08T02:10:22;4.70;;;3.53;;
85767;SDS011;76705;49.006;12.078;2024-03-08T02:13:01;6.35;;;3.95;;
85767;SDS011;76705;49.006;12.078;2024-03-08T02:15:49;4.45;;;3.38;;
85767;SDS011;76705;49.006;12.078;2024-03-08T02:18:29;4.82;;;3.53;;
85767;SDS011;76705;49.006;12.078;2024-03-08T02:21:09;4.90;;;3.60;;
85767;SDS011;76705;49.006;12.078;2024-03-08T02:23:47;5.28;;;3.72;;
85767;SDS011;76705;49.006;12.078;2024-03-08T02:29:03;5.88;;;3.92;;
85767;SDS011;76705;49.006;12.078;2024-03-08T02:31:42;5.78;;;3.60;;
85767;SDS011;76705;49.006;12.078;2024-03-08T02:34:20;4.25;;;3.25;;
85767;SDS011;76705;49.006;12.078;2024-03-08T02:37:00;4.68;;;3.40;;
85767;SDS011;76705;49.006;12.078;2024-03-08T02:39:39;4.43;;;3.40;;
85767;SDS011;76705;49.006;12.078;2024-03-08T02:42:17;6.05;;;3.55;;
85767;SDS011;76705;49.006;12.078;2024-03-08T02:47:33;5.97;;;3.83;;
85767;SDS011;76705;49.006;12.078;2024-03-08T02:50:11;5.07;;;3.83;;
85767;SDS011;76705;49.006;12.078;2024-03-08T02:52:50;6.50;;;3.80;;
85767;SDS011;76705;49.006;12.078;2024-03-08T02:55:29;4.97;;;3.58;;
85767;SDS011;76705;49.006;12.078;2024-03-08T02:58:07;4.53;;;3.50;;
85767;SDS011;76705;49.006;12.078;2024-03-08T03:00:49;6.47;;;3.65;;
85767;SDS011;76705;49.006;12.078;2024-03-08T03:03:27;4.63;;;3.20;;
85767;SDS011;76705;49.006;12.078;2024-03-08T03:06:05;4.03;;;2.85;;
85767;SDS011;76705;49.006;12.078;2024-03-08T03:08:46;5.22;;;3.70;;
85767;SDS011;76705;49.006;12.078;2024-03-08T03:11:24;5.75;;;4.10;;
85767;SDS011;76705;49.006;12.078;2024-03-08T03:14:02;4.30;;;3.17;;
85767;SDS011;76705;49.006;12.078;2024-03-08T03:16:40;6.90;;;4.20;;
85767;SDS011;76705;49.006;12.078;2024-03-08T03:19:19;6.90;;;4.03;;
85767;SDS011;76705;49.006;12.078;2024-03-08T03:24:37;4.65;;;3.50;;
85767;SDS011;76705;49.006;12.078;2024-03-08T03:27:16;4.43;;;3.42;;
85767;SDS011;76705;49.006;12.078;2024-03-08T03:29:53;5.85;;;3.60;;
85767;SDS011;76705;49.006;12.078;2024-03-08T03:32:33;6.13;;;3.80;;
85767;SDS011;76705;49.006;12.078;2024-03-08T03:35:14;5.80;;;4.32;;
85767;SDS011;76705;49.006;12.078;2024-03-08T03:37:55;5.28;;;3.35;;
85767;SDS011;76705;49.006;12.078;2024-03-08T03:40:41;4.65;;;3.15;;
85767;SDS011;76705;49.006;12.078;2024-03-08T03:43:19;4.72;;;3.45;;
85767;SDS011;76705;49.006;12.078;2024-03-08T03:45:57;6.65;;;3.67;;
85767;SDS011;76705;49.006;12.078;2024-03-08T03:48:35;3.80;;;2.88;;
85767;SDS011;76705;49.006;12.078;2024-03-08T03:51:13;5.05;;;3.28;;
85767;SDS011;76705;49.006;12.078;2024-03-08T03:53:53;5.40;;;3.65;;
85767;SDS011;76705;49.006;12.078;2024-03-08T03:56:32;5.13;;;3.60;;
85767;SDS011;76705;49.006;12.078;2024-03-08T03:59:10;6.40;;;4.00;;
85767;SDS011;76705;49.006;12.078;2024-03-08T04:01:49;5.95;;;3.50;;
85767;SDS011;76705;49.006;12.078;2024-03-08T04:04:27;5.15;;;3.75;;
85767;SDS011;76705;49.006;12.078;2024-03-08T04:07:06;5.10;;;3.40;;
85767;SDS011;76705;49.006;12.078;2024-03-08T04:09:45;5.38;;;3.92;;
85767;SDS011;76705;49.006;12.078;2024-03-08T04:12:24;6.25;;;3.90;;
85767;SDS011;76705;49.006;12.078;2024-03-08T04:15:02;4.63;;;3.33;;
85767;SDS011;76705;49.006;12.078;2024-03-08T04:17:41;5.47;;;3.83;;
85767;SDS011;76705;49.006;12.078;2024-03-08T04:20:18;5.68;;;3.88;;
85767;SDS011;76705;49.006;12.078;2024-03-08T04:22:57;4.68;;;3.22;;
85767;SDS011;76705;49.006;12.078;2024-03-08T04:28:14;5.30;;;3.67;;
85767;SDS011;76705;49.006;12.078;2024-03-08T04:30:53;4.80;;;3.45;;
85767;SDS011;76705;49.006;12.078;2024-03-08T04:33:31;5.78;;;3.63;;
85767;SDS011;76705;49.006;12.078;2024-03-08T04:36:09;4.90;;;3.17;;
85767;SDS011;76705;49.006;12.078;2024-03-08T04:38:50;5.93;;;3.58;;
85767;SDS011;76705;49.006;12.078;2024-03-08T04:41:29;6.07;;;3.88;;
85767;SDS011;76705;49.006;12.078;2024-03-08T04:44:09;4.95;;;3.55;;
85767;SDS011;76705;49.006;12.078;2024-03-08T04:46:48;4.60;;;3.38;;
85767;SDS011;76705;49.006;12.078;2024-03-08T04:49:26;4.65;;;3.25;;
85767;SDS011;76705;49.006;12.078;2024-03-08T04:52:05;5.82;;;3.75;;
85767;SDS011;76705;49.006;12.078;2024-03-08T04:54:44;5.65;;;3.80;;
85767;SDS011;76705;49.006;12.078;2024-03-08T04:57:22;5.25;;;3.47;;
85767;SDS011;76705;49.006;12.078;2024-03-08T05:00:02;5.07;;;3.47;;
85767;SDS011;76705;49.006;12.078;2024-03-08T05:02:42;5.82;;;3.40;;
85767;SDS011;76705;49.006;12.078;2024-03-08T05:05:20;5.35;;;3.30;;
85767;SDS011;76705;49.006;12.078;2024-03-08T05:10:36;6.28;;;3.60;;
85767;SDS011;76705;49.006;12.078;2024-03-08T05:13:14;4.72;;;3.17;;
85767;SDS011;76705;49.006;12.078;2024-03-08T05:15:53;4.93;;;3.33;;
85767;SDS011;76705;49.006;12.078;2024-03-08T05:18:32;5.60;;;3.90;;
85767;SDS011;76705;49.006;12.078;2024-03-08T05:21:09;4.78;;;3.28;;
85767;SDS011;76705;49.006;12.078;2024-03-08T05:26:27;4.45;;;3.55;;
85767;SDS011;76705;49.006;12.078;2024-03-08T05:29:06;5.20;;;3.40;;
85767;SDS011;76705;49.006;12.078;2024-03-08T05:34:25;5.35;;;3.50;;
85767;SDS011;76705;49.006;12.078;2024-03-08T05:37:06;5.45;;;3.42;;
85767;SDS011;76705;49.006;12.078;2024-03-08T05:39:44;5.85;;;3.63;;
85767;SDS011;76705;49.006;12.078;2024-03-08T05:45:00;5.00;;;3.30;;
85767;SDS011;76705;49.006;12.078;2024-03-08T05:47:40;5.85;;;3.35;;
85767;SDS011;76705;49.006;12.078;2024-03-08T05:50:18;5.63;;;3.75;;
85767;SDS011;76705;49.006;12.078;2024-03-08T05:55:34;5.03;;;3.15;;
85767;SDS011;76705;49.006;12.078;2024-03-08T05:58:12;7.53;;;3.50;;
85767;SDS011;76705;49.006;12.078;2024-03-08T06:00:50;4.68;;;3.15;;
85767;SDS011;76705;49.006;12.078;2024-03-08T06:06:08;4.85;;;3.50;;
85767;SDS011;76705;49.006;12.078;2024-03-08T06:08:46;5.85;;;3.17;;
85767;SDS011;76705;49.006;12.078;2024-03-08T06:11:26;5.90;;;3.50;;
85767;SDS011;76705;49.006;12.078;2024-03-08T06:14:05;6.15;;;3.70;;
85767;SDS011;76705;49.006;12.078;2024-03-08T06:16:43;4.45;;;3.20;;
85767;SDS011;76705;49.006;12.078;2024-03-08T06:19:22;5.00;;;3.53;;
85767;SDS011;76705;49.006;12.078;2024-03-08T06:22:00;5.40;;;3.25;;
85767;SDS011;76705;49.006;12.078;2024-03-08T06:24:43;6.82;;;3.45;;
85767;SDS011;76705;49.006;12.078;2024-03-08T06:27:20;5.80;;;3.60;;
85767;SDS011;76705;49.006;12.078;2024-03-08T06:29:58;5.28;;;3.30;;
85767;SDS011;76705;49.006;12.078;2024-03-08T06:35:16;5.07;;;3.25;;
85767;SDS011;76705;49.006;12.078;2024-03-08T06:37:54;7.05;;;3.40;;
85767;SDS011;76705;49.006;12.078;2024-03-08T06:40:33;8.27;;;3.55;;
85767;SDS011;76705;49.006;12.078;2024-03-08T06:43:12;9.70;;;3.30;;
85767;SDS011;76705;49.006;12.078;2024-03-08T06:45:53;4.57;;;2.85;;
85767;SDS011;76705;49.006;12.078;2024-03-08T06:48:31;5.38;;;3.28;;
85767;SDS011;76705;49.006;12.078;2024-03-08T06:51:11;5.13;;;3.50;;
85767;SDS011;76705;49.006;12.078;2024-03-08T06:53:49;5.38;;;3.30;;
85767;SDS011;76705;49.006;12.078;2024-03-08T06:56:27;5.43;;;3.00;;
85767;SDS011;76705;49.006;12.078;2024-03-08T06:59:05;3.90;;;2.90;;
85767;SDS011;76705;49.006;12.078;2024-03-08T07:01:44;4.53;;;2.95;;
85767;SDS011;76705;49.006;12.078;2024-03-08T07:04:21;4.47;;;3.42;;
85767;SDS011;76705;49.006;12.078;2024-03-08T07:07:05;5.70;;;3.63;;
85767;SDS011;76705;49.006;12.078;2024-03-08T07:09:46;4.85;;;3.03;;
85767;SDS011;76705;49.006;12.078;2024-03-08T07:12:26;4.88;;;3.38;;
85767;SDS011;76705;49.006;12.078;2024-03-08T07:15:04;6.68;;;3.00;;
85767;SDS011;76705;49.006;12.078;2024-03-08T07:17:43;6.63;;;3.47;;
85767;SDS011;76705;49.006;12.078;2024-03-08T07:20:21;6.22;;;3.25;;
85767;SDS011;76705;49.006;12.078;2024-03-08T07:23:01;9.75;;;4.18;;
85767;SDS011;76705;49.006;12.078;2024-03-08T07:25:39;5.57;;;3.55;;
85767;SDS011;76705;49.006;12.078;2024-03-08T07:28:17;5.38;;;3.63;;
85767;SDS011;76705;49.006;12.078;2024-03-08T07:30:56;9.63;;;3.72;;
85767;SDS011;76705;49.006;12.078;2024-03-08T07:33:45;4.38;;;2.78;;
85767;SDS011;76705;49.006;12.078;2024-03-08T07:36:23;5.03;;;3.35;;
85767;SDS011;76705;49.006;12.078;2024-03-08T07:39:02;5.10;;;3.35;;
85767;SDS011;76705;49.006;12.078;2024-03-08T07:41:43;5.50;;;4.15;;
85767;SDS011;76705;49.006;12.078;2024-03-08T07:44:20;10.82;;;3.60;;
85767;SDS011;76705;49.006;12.078;2024-03-08T07:46:58;6.47;;;3.75;;
85767;SDS011;76705;49.006;12.078;2024-03-08T07:49:37;7.65;;;3.33;;
85767;SDS011;76705;49.006;12.078;2024-03-08T07:52:15;5.68;;;3.25;;
85767;SDS011;76705;49.006;12.078;2024-03-08T07:54:57;10.13;;;3.80;;
85767;SDS011;76705;49.006;12.078;2024-03-08T07:57:35;11.00;;;3.90;;
85767;SDS011;76705;49.006;12.078;2024-03-08T08:00:15;5.50;;;3.40;;
85767;SDS011;76705;49.006;12.078;2024-03-08T08:02:55;6.22;;;3.50;;
85767;SDS011;76705;49.006;12.078;2024-03-08T08:05:33;7.85;;;3.50;;
85767;SDS011;76705;49.006;12.078;2024-03-08T08:08:13;5.50;;;3.30;;
85767;SDS011;76705;49.006;12.078;2024-03-08T08:10:52;8.85;;;3.60;;
85767;SDS011;76705;49.006;12.078;2024-03-08T08:13:31;7.88;;;3.75;;
85767;SDS011;76705;49.006;12.078;2024-03-08T08:16:09;5.28;;;3.45;;
85767;SDS011;76705;49.006;12.078;2024-03-08T08:18:51;6.10;;;4.15;;
85767;SDS011;76705;49.006;12.078;2024-03-08T08:21:31;5.90;;;3.28;;
85767;SDS011;76705;49.006;12.078;2024-03-08T08:24:09;9.05;;;4.13;;
85767;SDS011;76705;49.006;12.078;2024-03-08T08:26:50;8.07;;;3.42;;
85767;SDS011;76705;49.006;12.078;2024-03-08T08:29:28;5.72;;;3.60;;
85767;SDS011;76705;49.006;12.078;2024-03-08T08:32:06;6.15;;;3.38;;
85767;SDS011;76705;49.006;12.078;2024-03-08T08:34:45;5.53;;;3.65;;
85767;SDS011;76705;49.006;12.078;2024-03-08T08:37:23;5.05;;;3.08;;
85767;SDS011;76705;49.006;12.078;2024-03-08T08:40:01;5.88;;;3.17;;
85767;SDS011;76705;49.006;12.078;2024-03-08T08:42:44;6.82;;;2.97;;
85767;SDS011;76705;49.006;12.078;2024-03-08T08:45:23;6.65;;;3.47;;
85767;SDS011;76705;49.006;12.078;2024-03-08T08:48:01;6.07;;;3.47;;
85767;SDS011;76705;49.006;12.078;2024-03-08T08:50:40;7.28;;;3.30;;
85767;SDS011;76705;49.006;12.078;2024-03-08T08:53:19;5.18;;;3.17;;
85767;SDS011;76705;49.006;12.078;2024-03-08T08:55:57;9.68;;;3.80;;
85767;SDS011;76705;49.006;12.078;2024-03-08T08:58:36;5.80;;;3.20;;
85767;SDS011;76705;49.006;12.078;2024-03-08T09:01:15;6.28;;;3.20;;
85767;SDS011;76705;49.006;12.078;2024-03-08T09:03:56;6.97;;;3.40;;
85767;SDS011;76705;49.006;12.078;2024-03-08T09:06:35;5.03;;;3.47;;
85767;SDS011;76705;49.006;12.078;2024-03-08T09:09:13;6.57;;;3.80;;
85767;SDS011;76705;49.006;12.078;2024-03-08T09:11:51;5.05;;;3.25;;
85767;SDS011;76705;49.006;12.078;2024-03-08T09:14:32;6.95;;;3.40;;
85767;SDS011;76705;49.006;12.078;2024-03-08T09:17:11;6.88;;;3.78;;
85767;SDS011;76705;49.006;12.078;2024-03-08T09:19:49;5.30;;;3.08;;
85767;SDS011;76705;49.006;12.078;2024-03-08T09:22:28;4.53;;;2.90;;
85767;SDS011;76705;49.006;12.078;2024-03-08T09:25:06;4.95;;;3.40;;
85767;SDS011;76705;49.006;12.078;2024-03-08T09:27:47;4.93;;;3.28;;
85767;SDS011;76705;49.006;12.078;2024-03-08T09:30:27;8.15;;;3.22;;
85767;SDS011;76705;49.006;12.078;2024-03-08T09:33:05;9.43;;;3.38;;
85767;SDS011;76705;49.006;12.078;2024-03-08T09:35:43;10.57;;;3.63;;
85767;SDS011;76705;49.006;12.078;2024-03-08T09:38:22;10.93;;;3.33;;
85767;SDS011;76705;49.006;12.078;2024-03-08T09:41:00;4.20;;;3.03;;
85767;SDS011;76705;49.006;12.078;2024-03-08T09:43:38;6.18;;;3.42;;
85767;SDS011;76705;49.006;12.078;2024-03-08T09:48:57;6.03;;;3.35;;
85767;SDS011;76705;49.006;12.078;2024-03-08T09:51:35;5.63;;;3.38;;
85767;SDS011;76705;49.006;12.078;2024-03-08T09:54:14;7.50;;;3.00;;
85767;SDS011;76705;49.006;12.078;2024-03-08T09:56:54;8.00;;;3.05;;
85767;SDS011;76705;49.006;12.078;2024-03-08T09:59:33;7.63;;;3.20;;
85767;SDS011;76705;49.006;12.078;2024-03-08T10:02:16;5.95;;;2.92;;
85767;SDS011;76705;49.006;12.078;2024-03-08T10:04:54;7.95;;;4.15;;
85767;SDS011;76705;49.006;12.078;2024-03-08T10:07:35;11.18;;;3.22;;
85767;SDS011;76705;49.006;12.078;2024-03-08T10:10:12;8.80;;;4.07;;
85767;SDS011;76705;49.006;12.078;2024-03-08T10:12:51;6.60;;;4.13;;
85767;SDS011;76705;49.006;12.078;2024-03-08T10:15:29;4.75;;;3.60;;
85767;SDS011;76705;49.006;12.078;2024-03-08T10:18:12;11.25;;;5.18;;
85767;SDS011;76705;49.006;12.078;2024-03-08T10:21:03;7.55;;;3.72;;
85767;SDS011;76705;49.006;12.078;2024-03-08T10:23:42;8.82;;;4.38;;
85767;SDS011;76705;49.006;12.078;2024-03-08T10:26:23;5.22;;;3.47;;
85767;SDS011;76705;49.006;12.078;2024-03-08T10:29:01;6.35;;;4.28;;
85767;SDS011;76705;49.006;12.078;2024-03-08T10:31:42;6.38;;;4.35;;
85767;SDS011;76705;49.006;12.078;2024-03-08T10:34:22;6.95;;;3.90;;
85767;SDS011;76705;49.006;12.078;2024-03-08T10:37:03;8.30;;;3.80;;
85767;SDS011;76705;49.006;12.078;2024-03-08T10:39:42;12.68;;;4.00;;
85767;SDS011;76705;49.006;12.078;2024-03-08T10:42:26;7.43;;;4.05;;
85767;SDS011;76705;49.006;12.078;2024-03-08T10:45:09;7.60;;;4.35;;
85767;SDS011;76705;49.006;12.078;2024-03-08T10:47:59;7.88;;;4.85;;
85767;SDS011;76705;49.006;12.078;2024-03-08T10:50:47;7.85;;;3.47;;
85767;SDS011;76705;49.006;12.078;2024-03-08T10:53:30;11.52;;;4.60;;
85767;SDS011;76705;49.006;12.078;2024-03-08T10:58:47;7.15;;;4.00;;
85767;SDS011;76705;49.006;12.078;2024-03-08T11:01:26;6.28;;;4.03;;
85767;SDS011;76705;49.006;12.078;2024-03-08T11:04:04;7.82;;;4.30;;
85767;SDS011;76705;49.006;12.078;2024-03-08T11:06:44;8.80;;;4.50;;
85767;SDS011;76705;49.006;12.078;2024-03-08T11:09:28;5.82;;;4.03;;
85767;SDS011;76705;49.006;12.078;2024-03-08T11:12:19;8.07;;;4.28;;
85767;SDS011;76705;49.006;12.078;2024-03-08T11:14:59;6.97;;;3.70;;
85767;SDS011;76705;49.006;12.078;2024-03-08T11:17:46;7.95;;;4.15;;
85767;SDS011;76705;49.006;12.078;2024-03-08T11:20:25;9.68;;;4.30;;
85767;SDS011;76705;49.006;12.078;2024-03-08T11:23:06;7.18;;;4.30;;
85767;SDS011;76705;49.006;12.078;2024-03-08T11:25:45;7.57;;;3.63;;
85767;SDS011;76705;49.006;12.078;2024-03-08T11:28:24;7.53;;;4.20;;
85767;SDS011;76705;49.006;12.078;2024-03-08T11:34:02;12.98;;;4.10;;
85767;SDS011;76705;49.006;12.078;2024-03-08T11:36:40;6.85;;;3.60;;
85767;SDS011;76705;49.006;12.078;2024-03-08T11:39:21;6.72;;;3.88;;
85767;SDS011;76705;49.006;12.078;2024-03-08T11:42:00;9.60;;;3.88;;
85767;SDS011;76705;49.006;12.078;2024-03-08T11:44:38;9.20;;;3.80;;
85767;SDS011;76705;49.006;12.078;2024-03-08T11:47:20;6.45;;;3.58;;
85767;SDS011;76705;49.006;12.078;2024-03-08T11:49:58;6.43;;;3.92;;
85767;SDS011;76705;49.006;12.078;2024-03-08T11:55:16;7.63;;;3.50;;
85767;SDS011;76705;49.006;12.078;2024-03-08T11:58:01;5.90;;;3.72;;
85767;SDS011;76705;49.006;12.078;2024-03-08T12:00:42;7.07;;;3.50;;
85767;SDS011;76705;49.006;12.078;2024-03-08T12:03:20;9.25;;;3.60;;
85767;SDS011;76705;49.006;12.078;2024-03-08T12:05:58;6.40;;;3.60;;
85767;SDS011;76705;49.006;12.078;2024-03-08T12:08:37;7.35;;;3.67;;
85767;SDS011;76705;49.006;12.078;2024-03-08T12:11:16;13.02;;;4.15;;
85767;SDS011;76705;49.006;12.078;2024-03-08T12:13:56;7.00;;;4.00;;
85767;SDS011;76705;49.006;12.078;2024-03-08T12:16:36;7.78;;;3.97;;
85767;SDS011;76705;49.006;12.078;2024-03-08T12:19:14;8.07;;;3.83;;
85767;SDS011;76705;49.006;12.078;2024-03-08T12:21:53;6.65;;;3.58;;
85767;SDS011;76705;49.006;12.078;2024-03-08T12:24:31;12.65;;;4.30;;
85767;SDS011;76705;49.006;12.078;2024-03-08T12:27:20;7.05;;;3.30;;
85767;SDS011;76705;49.006;12.078;2024-03-08T12:29:58;7.90;;;3.17;;
85767;SDS011;76705;49.006;12.078;2024-03-08T12:32:36;6.00;;;3.03;;
85767;SDS011;76705;49.006;12.078;2024-03-08T12:35:14;5.82;;;3.15;;
85767;SDS011;76705;49.006;12.078;2024-03-08T12:37:52;5.10;;;2.75;;
85767;SDS011;76705;49.006;12.078;2024-03-08T12:40:32;3.67;;;2.83;;
85767;SDS011;76705;49.006;12.078;2024-03-08T12:43:13;4.47;;;3.60;;
85767;SDS011;76705;49.006;12.078;2024-03-08T12:45:53;6.07;;;3.28;;
85767;SDS011;76705;49.006;12.078;2024-03-08T12:48:34;7.53;;;3.30;;
85767;SDS011;76705;49.006;12.078;2024-03-08T12:51:12;5.07;;;3.38;;
85767;SDS011;76705;49.006;12.078;2024-03-08T12:53:50;6.35;;;3.20;;
85767;SDS011;76705;49.006;12.078;2024-03-08T12:56:34;6.88;;;3.40;;
85767;SDS011;76705;49.006;12.078;2024-03-08T12:59:16;6.38;;;3.67;;
85767;SDS011;76705;49.006;12.078;2024-03-08T13:01:53;7.65;;;4.28;;
85767;SDS011;76705;49.006;12.078;2024-03-08T13:04:32;7.20;;;3.42;;
85767;SDS011;76705;49.006;12.078;2024-03-08T13:07:10;8.93;;;3.15;;
85767;SDS011;76705;49.006;12.078;2024-03-08T13:09:49;5.10;;;3.22;;
85767;SDS011;76705;49.006;12.078;2024-03-08T13:12:27;6.13;;;3.15;;
85767;SDS011;76705;49.006;12.078;2024-03-08T13:17:46;6.53;;;3.67;;
85767;SDS011;76705;49.006;12.078;2024-03-08T13:20:26;8.50;;;3.25;;
85767;SDS011;76705;49.006;12.078;2024-03-08T13:23:06;5.45;;;3.53;;
85767;SDS011;76705;49.006;12.078;2024-03-08T13:25:46;7.80;;;3.70;;
85767;SDS011;76705;49.006;12.078;2024-03-08T13:28:27;5.32;;;2.95;;
85767;SDS011;76705;49.006;12.078;2024-03-08T13:31:09;14.85;;;3.60;;
85767;SDS011;76705;49.006;12.078;2024-03-08T13:33:50;5.38;;;3.03;;
85767;SDS011;76705;49.006;12.078;2024-03-08T13:36:29;8.43;;;3.70;;
85767;SDS011;76705;49.006;12.078;2024-03-08T13:39:16;5.25;;;2.88;;
85767;SDS011;76705;49.006;12.078;2024-03-08T13:41:54;4.93;;;2.50;;
85767;SDS011;76705;49.006;12.078;2024-03-08T13:44:32;7.30;;;3.30;;
85767;SDS011;76705;49.006;12.078;2024-03-08T13:47:11;11.10;;;3.70;;
85767;SDS011;76705;49.006;12.078;2024-03-08T13:49:51;4.75;;;3.05;;
85767;SDS011;76705;49.006;12.078;2024-03-08T13:52:29;10.38;;;3.22;;
85767;SDS011;76705;49.006;12.078;2024-03-08T13:55:07;5.90;;;2.88;;
85767;SDS011;76705;49.006;12.078;2024-03-08T13:57:47;4.05;;;3.03;;
85767;SDS011;76705;49.006;12.078;2024-03-08T14:00:25;6.60;;;3.15;;
85767;SDS011;76705;49.006;12.078;2024-03-08T14:03:07;4.80;;;3.28;;
85767;SDS011;76705;49.006;12.078;2024-03-08T14:05:47;5.03;;;3.25;;
85767;SDS011;76705;49.006;12.078;2024-03-08T14:11:04;5.85;;;3.47;;
85767;SDS011;76705;49.006;12.078;2024-03-08T14:13:50;5.75;;;3.28;;
85767;SDS011;76705;49.006;12.078;2024-03-08T14:16:28;4.88;;;2.85;;
85767;SDS011;76705;49.006;12.078;2024-03-08T14:19:07;9.38;;;2.85;;
85767;SDS011;76705;49.006;12.078;2024-03-08T14:21:47;5.32;;;2.70;;
85767;SDS011;76705;49.006;12.078;2024-03-08T14:24:30;4.82;;;2.80;;
85767;SDS011;76705;49.006;12.078;2024-03-08T14:29:47;5.22;;;2.65;;
85767;SDS011;76705;49.006;12.078;2024-03-08T14:32:25;4.85;;;2.55;;
85767;SDS011;76705;49.006;12.078;2024-03-08T14:37:43;4.30;;;2.88;;
85767;SDS011;76705;49.006;12.078;2024-03-08T14:40:20;4.65;;;2.60;;
85767;SDS011;76705;49.006;12.078;2024-03-08T14:43:00;4.88;;;2.83;;
85767;SDS011;76705;49.006;12.078;2024-03-08T14:45:38;4.47;;;3.03;;
85767;SDS011;76705;49.006;12.078;2024-03-08T14:48:16;5.72;;;2.78;;
85767;SDS011;76705;49.006;12.078;2024-03-08T14:50:56;3.30;;;2.45;;
85767;SDS011;76705;49.006;12.078;2024-03-08T14:53:34;5.25;;;2.85;;
85767;SDS011;76705;49.006;12.078;2024-03-08T14:56:11;3.83;;;2.67;;
85767;SDS011;76705;49.006;12.078;2024-03-08T14:58:54;5.07;;;2.80;;
85767;SDS011;76705;49.006;12.078;2024-03-08T15:01:33;5.38;;;2.88;;
85767;SDS011;76705;49.006;12.078;2024-03-08T15:04:13;6.45;;;2.75;;
85767;SDS011;76705;49.006;12.078;2024-03-08T15:06:54;4.15;;;2.63;;
85767;SDS011;76705;49.006;12.078;2024-03-08T15:09:32;6.80;;;2.90;;
85767;SDS011;76705;49.006;12.078;2024-03-08T15:14:55;3.75;;;2.75;;
85767;SDS011;76705;49.006;12.078;2024-03-08T15:17:33;4.45;;;2.53;;
85767;SDS011;76705;49.006;12.078;2024-03-08T15:20:11;4.88;;;2.47;;
85767;SDS011;76705;49.006;12.078;2024-03-08T15:22:55;7.22;;;2.75;;
85767;SDS011;76705;49.006;12.078;2024-03-08T15:25:36;4.65;;;2.22;;
85767;SDS011;76705;49.006;12.078;2024-03-08T15:28:16;6.65;;;2.72;;
85767;SDS011;76705;49.006;12.078;2024-03-08T15:30:58;5.72;;;2.28;;
85767;SDS011;76705;49.006;12.078;2024-03-08T15:33:42;6.90;;;2.75;;
85767;SDS011;76705;49.006;12.078;2024-03-08T15:36:26;3.80;;;2.67;;
85767;SDS011;76705;49.006;12.078;2024-03-08T15:39:07;3.63;;;2.45;;
85767;SDS011;76705;49.006;12.078;2024-03-08T15:41:48;4.10;;;2.47;;
85767;SDS011;76705;49.006;12.078;2024-03-08T15:47:05;8.60;;;3.00;;
85767;SDS011;76705;49.006;12.078;2024-03-08T15:49:44;7.40;;;2.70;;
85767;SDS011;76705;49.006;12.078;2024-03-08T15:52:22;8.52;;;2.60;;
85767;SDS011;76705;49.006;12.078;2024-03-08T15:55:02;6.78;;;2.92;;
85767;SDS011;76705;49.006;12.078;2024-03-08T15:57:43;7.68;;;2.83;;
85767;SDS011;76705;49.006;12.078;2024-03-08T16:00:21;7.45;;;3.75;;
85767;SDS011;76705;49.006;12.078;2024-03-08T16:03:23;8.82;;;2.85;;
85767;SDS011;76705;49.006;12.078;2024-03-08T16:08:41;6.93;;;2.65;;
85767;SDS011;76705;49.006;12.078;2024-03-08T16:11:22;12.25;;;2.78;;
85767;SDS011;76705;49.006;12.078;2024-03-08T16:14:00;9.05;;;3.03;;
85767;SDS011;76705;49.006;12.078;2024-03-08T16:16:41;9.88;;;2.83;;
85767;SDS011;76705;49.006;12.078;2024-03-08T16:19:19;8.20;;;3.03;;
85767;SDS011;76705;49.006;12.078;2024-03-08T16:21:56;7.25;;;3.20;;
85767;SDS011;76705;49.006;12.078;2024-03-08T16:24:35;8.68;;;2.80;;
85767;SDS011;76705;49.006;12.078;2024-03-08T16:27:16;5.78;;;2.70;;
85767;SDS011;76705;49.006;12.078;2024-03-08T16:29:54;9.02;;;2.88;;
85767;SDS011;76705;49.006;12.078;2024-03-08T16:32:32;4.90;;;3.10;;
85767;SDS011;76705;49.006;12.078;2024-03-08T16:37:49;6.65;;;2.53;;
85767;SDS011;76705;49.006;12.078;2024-03-08T16:40:29;7.53;;;2.65;;
85767;SDS011;76705;49.006;12.078;2024-03-08T16:45:49;6.55;;;2.50;;
85767;SDS011;76705;49.006;12.078;2024-03-08T16:48:31;5.85;;;2.85;;
85767;SDS011;76705;49.006;12.078;2024-03-08T16:51:11;5.85;;;2.95;;
85767;SDS011;76705;49.006;12.078;2024-03-08T16:53:50;5.45;;;2.15;;
85767;SDS011;76705;49.006;12.078;2024-03-08T16:56:28;4.05;;;2.35;;